Terminal Aerodrome Forecast
Issued by NWS Cleveland, OH

Home | Current Version | Previous Version | Text Only | Print | Product List | Glossary On
Versions: 1 2 3 4 5 6 7 8 9 10 11 12 13 14 15
599
FTUS41 KCLE 251720
TAFCAK
TAF
KCAK 251720Z 2518/2618 33010KT 5SM BR BKN008 OVC012
      TEMPO 2518/2521 1/2SM -RA FG OVC003
     FM252200 33010KT P6SM SCT008 BKN015
     FM261100 29004KT P6SM FEW015 BKN035=

USA.gov is the U.S. government's official web portal to all federal, state and local government web resources and services.